Terminal Aerodrome Forecast
Issued by NWS

Home | Current Version | Previous Version | Text Only | Print | Product List | Glossary On
Versions: 1 2 3 4 5 6 7 8 9 10 11 12 13 14 15 16 17
695
FTUS46 KMTR 100534
TAFSTS
TAF
KSTS 100534Z 1006/1106 15006KT 5SM -RA BKN005 OVC015
     FM101000 18008KT 1SM -RA BR OVC002
     FM101500 18010KT 3SM -RA BR OVC007
     FM102100 24005KT 5SM BR OVC015
     FM110300 28003KT P6SM BKN050=

USA.gov is the U.S. government's official web portal to all federal, state and local government web resources and services.